Time;durP1;ratioP1;P1;durP2;ratioP2;P2;SDS_P1;SDS_P2;PMS_P1;PMS_P2;Temp;Humidity;BMP_temperature;BMP_pressure;BME280_temperature;BME280_humidity;BME280_pressure;Samples;Min_cycle;Max_cycle;Signal;HPM_P1;HPM_P2
2023/01/04 00:01:45;;;;;;;1.58;1.13;;;8.90;90.20;;;;;;5100510;28;20126;-74
2023/01/04 00:04:11;;;;;;;1.58;0.88;;;9.00;90.30;;;;;;5115620;28;20084;-73
2023/01/04 00:06:36;;;;;;;2.58;0.90;;;8.90;90.20;;;;;;5117584;28;20039;-73
2023/01/04 00:09:02;;;;;;;3.45;0.73;;;8.90;90.20;;;;;;5117487;28;20402;-73
2023/01/04 00:11:28;;;;;;;2.38;0.90;;;8.90;90.30;;;;;;5118055;28;20077;-73
2023/01/04 00:13:57;;;;;;;2.00;0.75;;;8.90;90.30;;;;;;5136156;28;20102;-73
2023/01/04 00:16:25;;;;;;;1.83;0.75;;;8.80;90.40;;;;;;5101292;28;20451;-73
2023/01/04 00:18:52;;;;;;;1.13;0.68;;;8.80;90.40;;;;;;5100120;28;20043;-73
2023/01/04 00:21:21;;;;;;;1.08;0.70;;;8.80;90.40;;;;;;5135061;27;20046;-74
2023/01/04 00:23:50;;;;;;;1.63;0.80;;;8.80;90.50;;;;;;5135346;28;20070;-73
2023/01/04 00:26:19;;;;;;;2.30;1.23;;;8.80;90.50;;;;;;5136112;28;20032;-74
2023/01/04 00:28:45;;;;;;;1.98;0.90;;;8.80;90.60;;;;;;5100973;28;20057;-73
2023/01/04 00:31:15;;;;;;;2.13;0.88;;;8.80;90.60;;;;;;5116938;28;20043;-73
2023/01/04 00:33:41;;;;;;;1.73;0.90;;;8.80;90.60;;;;;;5099972;28;20058;-74
2023/01/04 00:36:10;;;;;;;1.17;0.85;;;8.80;90.70;;;;;;5116831;28;20039;-73
2023/01/04 00:38:36;;;;;;;1.77;0.80;;;8.80;90.70;;;;;;5135124;28;20039;-74
2023/01/04 00:41:03;;;;;;;2.17;0.88;;;8.80;90.70;;;;;;5116949;28;20088;-74
2023/01/04 00:43:29;;;;;;;1.73;0.90;;;8.70;90.70;;;;;;5117268;28;20046;-73
2023/01/04 00:45:55;;;;;;;2.13;0.80;;;8.80;90.80;;;;;;5082767;28;20436;-75
2023/01/04 00:48:21;;;;;;;1.10;0.70;;;8.70;90.80;;;;;;5099567;28;20487;-74
2023/01/04 00:50:47;;;;;;;0.80;0.70;;;8.70;90.80;;;;;;5082718;28;20041;-75
2023/01/04 00:53:14;;;;;;;2.63;1.00;;;8.70;90.90;;;;;;5082665;28;20047;-74
2023/01/04 00:55:40;;;;;;;1.85;0.90;;;8.70;90.90;;;;;;5116237;28;20034;-75
2023/01/04 00:58:06;;;;;;;1.20;0.80;;;8.70;90.90;;;;;;5116509;28;20046;-74
2023/01/04 01:00:32;;;;;;;2.13;0.85;;;8.70;91.00;;;;;;5097217;28;20099;-74
2023/01/04 01:02:58;;;;;;;1.45;0.75;;;8.70;91.00;;;;;;5099107;28;20035;-75
2023/01/04 01:05:24;;;;;;;3.58;1.10;;;8.80;91.10;;;;;;5134393;28;20054;-74
2023/01/04 01:07:49;;;;;;;1.80;0.85;;;8.70;91.10;;;;;;5082188;28;20045;-74
2023/01/04 01:10:15;;;;;;;1.30;0.93;;;8.60;91.00;;;;;;5116697;28;20039;-75
2023/01/04 01:12:46;;;;;;;1.58;0.90;;;8.70;91.10;;;;;;5082169;28;20047;-74
2023/01/04 01:15:11;;;;;;;0.87;0.73;;;8.70;91.10;;;;;;5099790;28;20146;-73
2023/01/04 01:17:37;;;;;;;1.50;0.90;;;8.70;91.10;;;;;;5115907;28;20074;-73
2023/01/04 01:20:04;;;;;;;0.82;0.70;;;8.80;91.20;;;;;;5134239;28;20073;-74
2023/01/04 01:22:33;;;;;;;1.83;0.77;;;8.80;91.20;;;;;;5099694;28;20093;-73
2023/01/04 01:24:59;;;;;;;0.75;0.52;;;8.70;91.20;;;;;;5115834;28;20047;-72
2023/01/04 01:27:24;;;;;;;1.15;0.60;;;8.80;91.20;;;;;;5098756;28;20131;-73
2023/01/04 01:29:50;;;;;;;1.20;0.70;;;8.80;91.30;;;;;;5098763;28;20547;-73
2023/01/04 01:32:16;;;;;;;1.95;1.02;;;8.80;91.30;;;;;;5081664;28;20036;-73
2023/01/04 01:34:41;;;;;;;0.70;0.50;;;8.90;91.30;;;;;;5114438;28;20034;-74
2023/01/04 01:37:07;;;;;;;2.30;0.90;;;8.80;91.30;;;;;;5082328;28;20039;-73
2023/01/04 01:39:33;;;;;;;1.40;0.90;;;8.90;91.30;;;;;;5098719;28;20031;-73
2023/01/04 01:41:58;;;;;;;2.38;0.77;;;8.90;91.40;;;;;;5115540;28;20046;-73
2023/01/04 01:44:59;;;;;;;1.35;0.80;;;8.80;91.40;;;;;;5116204;28;20046;-74
2023/01/04 01:47:40;;;;;;;1.15;0.80;;;8.80;91.40;;;;;;5115517;28;20043;-72
2023/01/04 01:50:25;;;;;;;1.30;0.88;;;8.90;91.40;;;;;;5115290;28;20078;-73
2023/01/04 01:52:52;;;;;;;1.25;0.80;;;8.90;91.40;;;;;;5083327;28;20505;-74
2023/01/04 01:55:18;;;;;;;1.65;0.80;;;8.90;91.40;;;;;;5081500;28;20053;-73
2023/01/04 01:57:46;;;;;;;1.55;0.88;;;8.90;91.50;;;;;;5098377;28;20035;-73
2023/01/04 02:00:14;;;;;;;1.60;0.93;;;9.00;91.50;;;;;;5115091;28;20043;-73
2023/01/04 02:02:58;;;;;;;1.80;0.90;;;9.00;91.50;;;;;;5098505;28;20402;-73
2023/01/04 02:05:24;;;;;;;1.17;0.90;;;9.00;91.50;;;;;;5133817;28;20039;-73
2023/01/04 02:07:51;;;;;;;2.55;0.90;;;9.00;91.50;;;;;;5115174;28;20077;-73
2023/01/04 02:10:17;;;;;;;0.60;0.60;;;9.10;91.50;;;;;;5098041;28;20047;-73
2023/01/04 02:12:45;;;;;;;1.17;0.90;;;9.10;91.50;;;;;;5133906;28;20039;-73
2023/01/04 02:15:11;;;;;;;1.80;0.88;;;9.20;91.50;;;;;;5081177;28;20039;-74
2023/01/04 02:18:08;;;;;;;2.28;0.90;;;9.20;91.60;;;;;;5133916;28;20091;-74
2023/01/04 02:20:41;;;;;;;2.22;1.02;;;9.20;91.60;;;;;;5099872;28;20039;-72
2023/01/04 02:23:36;;;;;;;1.27;0.80;;;9.20;91.60;;;;;;5133492;28;20092;-72
2023/01/04 02:26:34;;;;;;;1.25;0.90;;;9.30;91.60;;;;;;5133721;28;20042;-73
2023/01/04 02:29:34;;;;;;;1.83;0.90;;;9.20;91.60;;;;;;5133338;28;20063;-74
2023/01/04 02:32:09;;;;;;;1.58;0.95;;;9.30;91.60;;;;;;5113323;28;20042;-74
2023/01/04 02:34:54;;;;;;;1.75;0.90;;;9.30;91.60;;;;;;5114418;28;20080;-74
2023/01/04 02:37:40;;;;;;;1.92;0.93;;;9.30;91.70;;;;;;5099511;28;20047;-73
2023/01/04 02:40:20;;;;;;;1.63;1.10;;;9.30;91.70;;;;;;5133469;28;20066;-73
2023/01/04 02:45:52;;;;;;;0.90;0.82;;;9.40;91.80;;;;;;5137194;27;20047;-73
2023/01/04 02:50:57;;;;;;;1.30;0.90;;;9.40;91.80;;;;;;5139784;27;20046;-73
2023/01/04 02:53:35;;;;;;;1.77;0.90;;;9.40;92.10;;;;;;5139742;27;20043;-73
2023/01/04 02:56:36;;;;;;;1.60;1.00;;;9.40;91.90;;;;;;5121214;27;20561;-73
2023/01/04 02:59:21;;;;;;;1.50;0.80;;;9.50;91.90;;;;;;5108037;27;20371;-74
2023/01/04 03:08:12;;;;;;;2.08;0.98;;;9.40;91.90;;;;;;5125676;27;20115;-74
2023/01/04 03:10:49;;;;;;;0.73;0.73;;;9.50;91.90;;;;;;5121729;27;20470;-73
2023/01/04 03:13:25;;;;;;;1.42;0.90;;;9.50;91.90;;;;;;5122007;27;20152;-73
2023/01/04 03:16:10;;;;;;;1.73;0.77;;;9.50;91.90;;;;;;5105351;27;20505;-73
2023/01/04 03:18:41;;;;;;;0.65;0.60;;;9.60;92.00;;;;;;5104535;27;20046;-73
2023/01/04 03:21:08;;;;;;;;;;;9.60;92.00;;;;;;5121994;27;20039;-73
2023/01/04 03:37:38;;;;;;;1.10;0.77;;;9.70;92.10;;;;;;5139054;27;20031;-73
2023/01/04 03:49:09;;;;;;;0.60;0.60;;;9.80;92.20;;;;;;5139069;27;20035;-73
2023/01/04 03:51:38;;;;;;;0.70;0.60;;;9.80;92.20;;;;;;5139832;27;20053;-73
2023/01/04 03:54:26;;;;;;;1.40;0.82;;;9.80;92.20;;;;;;5139146;27;20118;-73
2023/01/04 03:56:53;;;;;;;0.70;0.70;;;9.80;92.20;;;;;;5118720;28;20031;-73
2023/01/04 03:59:21;;;;;;;0.98;0.73;;;9.90;92.30;;;;;;5100491;28;20042;-73
2023/01/04 04:01:47;;;;;;;1.58;0.90;;;9.90;92.30;;;;;;5135443;28;20437;-73
2023/01/04 04:09:39;;;;;;;0.80;0.70;;;10.00;92.30;;;;;;5135408;28;20039;-73
2023/01/04 04:12:04;;;;;;;1.77;0.80;;;10.10;92.30;;;;;;5135783;28;20039;-73
2023/01/04 04:14:30;;;;;;;0.77;0.60;;;10.00;92.30;;;;;;5135280;28;20043;-73
2023/01/04 04:16:55;;;;;;;0.60;0.60;;;10.00;92.30;;;;;;5116959;28;20398;-73
2023/01/04 04:19:21;;;;;;;1.48;1.00;;;10.10;92.30;;;;;;5135847;28;20035;-73
2023/01/04 04:21:47;;;;;;;1.30;0.90;;;10.10;92.30;;;;;;5135757;28;20054;-74
2023/01/04 04:24:17;;;;;;;0.70;0.65;;;10.10;92.30;;;;;;5117583;28;20046;-74
2023/01/04 04:26:43;;;;;;;1.42;0.90;;;10.10;92.30;;;;;;5135797;28;20062;-73
2023/01/04 04:29:09;;;;;;;1.13;0.90;;;10.10;92.30;;;;;;5099945;28;20043;-73
2023/01/04 04:31:34;;;;;;;1.23;1.00;;;10.20;92.30;;;;;;5116902;28;20091;-73
2023/01/04 04:34:00;;;;;;;1.65;1.00;;;10.30;92.40;;;;;;5135142;28;20043;-72
2023/01/04 04:36:26;;;;;;;2.05;0.80;;;10.30;92.30;;;;;;5117222;28;20424;-73
2023/01/04 04:38:51;;;;;;;2.28;1.00;;;10.30;92.30;;;;;;5116753;28;20046;-73
2023/01/04 04:44:01;;;;;;;1.08;0.90;;;10.40;92.30;;;;;;5134912;28;20039;-72
2023/01/04 04:46:27;;;;;;;1.50;1.00;;;10.50;92.30;;;;;;5135552;28;20423;-73
2023/01/04 04:48:52;;;;;;;1.48;0.88;;;10.50;92.30;;;;;;5135372;28;20038;-73
2023/01/04 04:51:18;;;;;;;1.30;1.00;;;10.50;92.30;;;;;;5135373;28;20035;-73
2023/01/04 04:53:44;;;;;;;1.92;1.05;;;10.50;92.40;;;;;;5134859;28;20039;-73
2023/01/04 04:56:10;;;;;;;1.50;0.90;;;10.50;92.40;;;;;;5134678;28;20402;-73
2023/01/04 04:58:36;;;;;;;0.70;0.70;;;10.50;92.40;;;;;;5116201;28;20051;-73
2023/01/04 05:01:02;;;;;;;1.30;1.00;;;10.50;92.40;;;;;;5134369;28;20094;-73
2023/01/04 05:03:28;;;;;;;1.23;0.60;;;10.50;92.50;;;;;;5134643;28;20096;-73
2023/01/04 05:05:53;;;;;;;1.15;1.00;;;10.50;92.50;;;;;;5134640;28;20039;-73
2023/01/04 05:08:19;;;;;;;2.35;1.08;;;10.50;92.50;;;;;;5116211;28;20039;-73
2023/01/04 05:10:45;;;;;;;0.77;0.75;;;10.50;92.50;;;;;;5134733;28;20043;-73
2023/01/04 05:13:12;;;;;;;0.80;0.80;;;10.50;92.50;;;;;;5134833;28;20042;-73
2023/01/04 05:15:41;;;;;;;1.95;1.00;;;10.50;92.50;;;;;;5116203;28;20095;-73
2023/01/04 05:18:08;;;;;;;0.82;0.80;;;10.50;92.60;;;;;;5134591;28;20043;-72
2023/01/04 05:20:35;;;;;;;1.98;1.00;;;10.50;92.60;;;;;;5134494;28;20043;-73
2023/01/04 05:23:00;;;;;;;1.20;0.98;;;10.50;92.60;;;;;;5134593;28;20031;-73
2023/01/04 05:25:26;;;;;;;1.10;0.90;;;10.50;92.60;;;;;;5134333;28;20035;-73
2023/01/04 05:27:52;;;;;;;1.65;0.80;;;10.60;92.60;;;;;;5116252;28;20126;-73
2023/01/04 05:32:56;;;;;;;0.98;0.93;;;10.60;92.60;;;;;;5134198;28;20042;-72
2023/01/04 05:35:22;;;;;;;1.33;0.90;;;10.60;92.60;;;;;;5134710;28;20474;-73
2023/01/04 05:37:47;;;;;;;1.33;1.10;;;10.50;92.70;;;;;;5134704;28;20054;-73
2023/01/04 05:40:13;;;;;;;1.00;0.90;;;10.60;92.70;;;;;;5134118;28;20035;-73
2023/01/04 05:42:39;;;;;;;1.05;0.90;;;10.50;92.70;;;;;;5134274;28;20549;-72
2023/01/04 05:45:05;;;;;;;1.25;0.90;;;10.60;92.70;;;;;;5116285;28;20428;-73
2023/01/04 05:47:31;;;;;;;0.80;0.80;;;10.60;92.70;;;;;;5133979;28;20066;-73
2023/01/04 05:49:57;;;;;;;0.93;0.82;;;10.60;92.70;;;;;;5098694;28;20066;-73
2023/01/04 05:52:23;;;;;;;2.67;0.90;;;10.50;92.70;;;;;;5134275;28;20051;-73
2023/01/04 05:54:48;;;;;;;0.80;0.80;;;10.60;92.80;;;;;;5134421;28;20031;-73
2023/01/04 05:57:15;;;;;;;1.27;1.00;;;10.60;92.80;;;;;;5133752;28;20498;-73
2023/01/04 05:59:40;;;;;;;1.55;0.90;;;10.60;92.80;;;;;;5115255;28;20065;-73
2023/01/04 06:02:11;;;;;;;0.88;0.82;;;10.60;92.80;;;;;;5115622;28;20036;-73
2023/01/04 06:04:37;;;;;;;1.15;1.02;;;10.70;93.10;;;;;;5133757;28;20038;-72
2023/01/04 06:07:02;;;;;;;1.05;0.82;;;10.60;92.80;;;;;;5134047;28;20130;-73
2023/01/04 06:09:28;;;;;;;1.55;1.00;;;10.60;92.80;;;;;;5115899;28;20424;-72
2023/01/04 06:11:54;;;;;;;0.95;0.80;;;10.60;92.80;;;;;;5133495;28;20042;-74
2023/01/04 06:14:19;;;;;;;1.50;0.85;;;10.60;92.80;;;;;;5098275;28;20536;-73
2023/01/04 06:16:45;;;;;;;1.60;0.93;;;10.60;92.80;;;;;;5134252;28;20050;-74
2023/01/04 06:19:11;;;;;;;2.88;1.00;;;10.70;92.90;;;;;;5133356;27;20512;-74
2023/01/04 06:21:36;;;;;;;1.48;0.80;;;10.70;92.90;;;;;;5133870;28;20092;-73
2023/01/04 06:24:02;;;;;;;1.13;1.00;;;10.70;92.90;;;;;;5115252;28;20035;-73
2023/01/04 06:26:28;;;;;;;1.50;0.80;;;10.70;92.90;;;;;;5115110;28;20031;-73
2023/01/04 06:28:53;;;;;;;1.77;0.80;;;10.70;92.90;;;;;;5115130;28;20035;-73
2023/01/04 06:31:19;;;;;;;0.80;0.80;;;10.70;92.90;;;;;;5115116;28;20528;-73
2023/01/04 06:33:44;;;;;;;1.45;1.00;;;10.70;93.20;;;;;;5133458;28;20060;-73
2023/01/04 06:36:10;;;;;;;0.90;0.80;;;10.80;93.00;;;;;;5133536;28;20055;-73
2023/01/04 06:38:35;;;;;;;1.10;0.88;;;10.80;93.00;;;;;;5133526;28;20402;-73
2023/01/04 06:41:01;;;;;;;0.75;0.75;;;10.80;92.90;;;;;;5114816;28;20043;-73
2023/01/04 06:43:27;;;;;;;0.70;0.70;;;10.80;92.90;;;;;;5133701;28;20035;-73
2023/01/04 06:45:53;;;;;;;1.38;0.95;;;10.80;92.90;;;;;;5133346;28;20042;-73
2023/01/04 06:48:18;;;;;;;1.23;1.00;;;10.90;92.90;;;;;;5133237;28;20050;-73
2023/01/04 06:50:44;;;;;;;1.35;1.10;;;10.90;92.90;;;;;;5133293;28;20103;-73
2023/01/04 06:53:10;;;;;;;0.70;0.70;;;10.90;92.90;;;;;;5133057;28;20035;-73
2023/01/04 06:55:35;;;;;;;1.20;1.10;;;11.00;92.90;;;;;;5114782;28;20050;-72
2023/01/04 06:58:01;;;;;;;1.40;1.08;;;11.00;92.90;;;;;;5133038;28;20443;-73
2023/01/04 07:00:27;;;;;;;2.30;1.17;;;11.10;92.90;;;;;;5133551;28;20130;-72
2023/01/04 07:02:52;;;;;;;1.40;0.90;;;11.10;92.90;;;;;;5133150;28;20398;-73
2023/01/04 07:05:18;;;;;;;1.38;0.77;;;11.20;92.90;;;;;;5132912;28;20055;-74
2023/01/04 07:07:44;;;;;;;1.98;1.30;;;11.10;92.80;;;;;;5114915;28;20039;-74
2023/01/04 07:10:09;;;;;;;1.52;1.10;;;11.10;92.80;;;;;;5114592;28;20063;-73
2023/01/04 07:12:35;;;;;;;1.10;0.90;;;11.20;92.80;;;;;;5114409;28;20035;-73
2023/01/04 07:15:01;;;;;;;1.67;1.00;;;11.20;92.80;;;;;;5114363;28;20047;-73
2023/01/04 07:17:27;;;;;;;1.15;1.00;;;11.20;92.80;;;;;;5132805;28;20027;-73
2023/01/04 07:19:52;;;;;;;0.82;0.82;;;11.20;92.80;;;;;;5133074;28;20092;-73
2023/01/04 07:22:18;;;;;;;1.10;1.00;;;11.20;92.80;;;;;;5133068;28;20107;-73
2023/01/04 07:24:44;;;;;;;0.80;0.80;;;11.30;92.90;;;;;;5114229;28;20043;-73
2023/01/04 07:27:10;;;;;;;0.82;0.82;;;11.30;92.90;;;;;;5133121;28;20039;-73
2023/01/04 07:29:36;;;;;;;0.93;0.88;;;11.30;92.90;;;;;;5114779;28;20513;-73
2023/01/04 07:32:02;;;;;;;1.55;0.88;;;11.30;92.90;;;;;;5115792;28;20126;-73
2023/01/04 07:34:28;;;;;;;2.40;1.10;;;11.30;92.90;;;;;;5136707;28;20046;-73
2023/01/04 07:36:54;;;;;;;1.10;0.80;;;11.30;92.90;;;;;;5136182;28;20031;-73
2023/01/04 07:39:21;;;;;;;1.23;0.80;;;11.30;92.90;;;;;;5136162;28;20035;-72
2023/01/04 07:41:47;;;;;;;2.05;1.20;;;11.30;92.90;;;;;;5136763;28;20047;-73
2023/01/04 07:44:14;;;;;;;2.03;0.90;;;11.40;92.90;;;;;;5134601;28;20039;-73
2023/01/04 07:46:41;;;;;;;1.52;1.10;;;11.30;92.90;;;;;;5136698;28;20043;-73
2023/01/04 07:49:11;;;;;;;1.00;0.90;;;11.30;92.90;;;;;;5117813;28;20037;-72
2023/01/04 07:51:36;;;;;;;1.35;1.00;;;11.30;92.90;;;;;;5136610;28;20043;-72
2023/01/04 07:54:02;;;;;;;1.35;1.00;;;11.30;92.90;;;;;;5135999;28;20096;-73
2023/01/04 07:56:28;;;;;;;1.52;1.13;;;11.40;92.90;;;;;;5117664;28;20039;-72
2023/01/04 07:58:56;;;;;;;2.85;1.30;;;11.50;93.00;;;;;;5117578;28;20057;-73
2023/01/04 08:01:23;;;;;;;2.17;1.10;;;11.40;92.90;;;;;;5135714;28;20047;-73
2023/01/04 08:03:50;;;;;;;1.88;1.23;;;11.40;92.90;;;;;;5135838;28;20118;-73
2023/01/04 08:06:17;;;;;;;1.33;1.00;;;11.40;92.90;;;;;;5136288;28;20057;-72
2023/01/04 08:08:43;;;;;;;1.73;1.10;;;11.40;92.90;;;;;;5117631;28;20035;-72
2023/01/04 08:11:13;;;;;;;1.55;1.30;;;11.40;92.90;;;;;;5117851;28;20035;-72
2023/01/04 08:13:39;;;;;;;1.55;1.00;;;11.40;92.90;;;;;;5136019;28;20501;-73
2023/01/04 08:16:05;;;;;;;1.90;1.10;;;11.40;92.90;;;;;;5116932;28;20486;-73
2023/01/04 08:18:31;;;;;;;1.20;1.10;;;11.40;93.00;;;;;;5135448;28;20038;-72
2023/01/04 08:21:03;;;;;;;1.73;1.20;;;11.40;93.00;;;;;;5117157;28;20043;-72
2023/01/04 08:23:28;;;;;;;1.42;1.20;;;11.40;93.00;;;;;;5135908;28;20122;-73
2023/01/04 08:25:54;;;;;;;1.35;1.13;;;11.40;93.00;;;;;;5135393;28;20074;-73
2023/01/04 08:28:19;;;;;;;1.80;0.80;;;11.50;93.00;;;;;;5116949;28;20141;-72
2023/01/04 08:30:45;;;;;;;1.55;1.05;;;11.40;93.20;;;;;;5116940;28;20070;-73
2023/01/04 08:33:14;;;;;;;1.30;0.93;;;11.50;93.00;;;;;;5135717;28;20077;-72
2023/01/04 08:35:39;;;;;;;1.80;1.10;;;11.50;93.00;;;;;;5135069;28;20035;-73
2023/01/04 08:38:05;;;;;;;1.10;1.00;;;11.50;93.00;;;;;;5116611;28;20375;-72
2023/01/04 08:40:30;;;;;;;1.83;1.25;;;11.50;93.00;;;;;;5135548;28;20035;-74
2023/01/04 08:42:56;;;;;;;1.92;1.20;;;11.50;92.90;;;;;;5134732;27;20031;-73
2023/01/04 08:45:22;;;;;;;2.28;1.02;;;11.60;93.00;;;;;;5116614;28;20104;-73
2023/01/04 08:47:47;;;;;;;2.55;1.15;;;11.60;92.90;;;;;;5135042;28;20034;-74
2023/01/04 08:50:15;;;;;;;2.33;0.98;;;11.60;92.90;;;;;;5116613;28;20043;-74
2023/01/04 08:52:41;;;;;;;1.30;0.93;;;11.60;92.90;;;;;;5117036;28;20054;-73
2023/01/04 08:55:07;;;;;;;1.50;1.00;;;11.60;92.90;;;;;;5134991;28;20032;-74
2023/01/04 08:57:34;;;;;;;1.02;0.93;;;11.50;92.90;;;;;;5116358;28;20402;-73
2023/01/04 09:00:05;;;;;;;1.83;1.10;;;11.60;93.00;;;;;;5116545;28;20043;-74
2023/01/04 09:02:31;;;;;;;1.42;0.95;;;11.60;93.00;;;;;;5116332;28;20133;-74
2023/01/04 09:05:02;;;;;;;1.80;1.10;;;11.60;93.00;;;;;;5134626;28;20123;-74
2023/01/04 09:07:29;;;;;;;;;;;11.60;93.00;;;;;;5117607;28;20039;-74
2023/01/04 09:09:54;;;;;;;1.10;0.90;;;11.60;93.00;;;;;;5134528;28;19918;-74
2023/01/04 09:12:20;;;;;;;1.80;1.02;;;11.60;93.00;;;;;;5116326;28;20078;-74
2023/01/04 09:14:46;;;;;;;2.00;0.93;;;11.60;93.00;;;;;;5134727;28;20463;-76
2023/01/04 09:17:11;;;;;;;1.80;1.10;;;11.70;93.10;;;;;;5099512;28;20043;-74
2023/01/04 09:19:37;;;;;;;1.02;0.93;;;11.60;93.10;;;;;;5135028;28;20035;-75
2023/01/04 09:22:02;;;;;;;1.75;1.10;;;11.60;93.10;;;;;;5116773;28;20039;-76
2023/01/04 09:24:28;;;;;;;1.73;1.10;;;11.70;93.10;;;;;;5116199;28;20042;-76
2023/01/04 09:26:54;;;;;;;1.70;1.05;;;11.60;93.00;;;;;;5082505;28;20027;-76
2023/01/04 09:29:19;;;;;;;2.60;1.10;;;11.70;93.10;;;;;;5116713;28;20133;-76
2023/01/04 09:31:46;;;;;;;1.73;1.10;;;11.70;93.10;;;;;;5116399;28;20050;-75
2023/01/04 09:34:12;;;;;;;3.97;1.20;;;11.70;93.10;;;;;;5100745;28;20155;-74
2023/01/04 09:36:38;;;;;;;2.97;1.20;;;11.70;93.10;;;;;;5088557;28;20047;-76
2023/01/04 09:39:04;;;;;;;1.90;1.30;;;11.80;93.10;;;;;;5100354;28;20172;-77
2023/01/04 09:41:36;;;;;;;2.80;1.30;;;11.80;93.10;;;;;;5117462;28;20066;-76
2023/01/04 09:44:24;;;;;;;2.78;1.30;;;11.80;93.10;;;;;;5141342;28;20063;-76
2023/01/04 09:46:56;;;;;;;2.75;1.40;;;11.80;93.10;;;;;;5118486;28;20117;-76
2023/01/04 09:49:40;;;;;;;2.85;1.50;;;11.80;93.10;;;;;;5084157;28;20031;-76
2023/01/04 09:52:15;;;;;;;1.83;1.20;;;11.80;93.10;;;;;;5118425;28;20065;-75
2023/01/04 09:54:48;;;;;;;2.75;1.40;;;11.80;93.10;;;;;;5099488;28;20060;-75
2023/01/04 09:57:25;;;;;;;3.17;1.20;;;11.80;93.20;;;;;;5099468;28;20054;-73
2023/01/04 09:59:56;;;;;;;1.55;1.10;;;11.80;93.50;;;;;;5099301;28;20089;-75
2023/01/04 10:02:29;;;;;;;2.20;1.15;;;11.70;93.20;;;;;;5100451;28;20043;-75
2023/01/04 10:04:58;;;;;;;1.70;1.05;;;11.70;93.20;;;;;;5103328;28;20121;-76
2023/01/04 10:07:28;;;;;;;2.50;1.20;;;11.70;93.30;;;;;;5108203;28;20031;-73
2023/01/04 10:09:55;;;;;;;1.73;1.10;;;11.80;93.30;;;;;;5103612;28;20035;-76
2023/01/04 10:12:52;;;;;;;2.40;1.33;;;11.80;93.30;;;;;;5086954;28;20039;-75
2023/01/04 10:15:46;;;;;;;2.25;1.20;;;11.80;93.30;;;;;;5116287;28;20125;-76
2023/01/04 10:18:25;;;;;;;2.33;1.08;;;11.80;93.30;;;;;;5102562;28;20046;-75
2023/01/04 10:21:10;;;;;;;1.25;1.02;;;11.80;93.30;;;;;;5118291;28;20208;-76
2023/01/04 10:23:52;;;;;;;1.25;0.98;;;11.80;93.30;;;;;;5119162;28;20039;-75
2023/01/04 10:26:26;;;;;;;1.67;0.90;;;11.70;93.30;;;;;;5135431;28;20397;-77
2023/01/04 10:29:16;;;;;;;0.82;0.82;;;11.80;93.30;;;;;;5115943;28;20043;-75
2023/01/04 10:32:00;;;;;;;1.70;1.08;;;11.80;93.30;;;;;;5118378;28;20187;-74
2023/01/04 10:34:36;;;;;;;1.63;1.23;;;11.90;93.40;;;;;;5115259;28;20043;-76
2023/01/04 10:37:17;;;;;;;2.03;1.00;;;11.80;93.40;;;;;;5100002;28;20127;-77
2023/01/04 10:39:44;;;;;;;;;;;11.90;93.40;;;;;;5116626;28;20035;-76
2023/01/04 10:42:31;;;;;;;2.03;1.02;;;11.80;93.30;;;;;;5136889;28;19923;-77
2023/01/04 10:45:22;;;;;;;1.60;1.00;;;11.80;93.40;;;;;;5098883;28;20039;-74
2023/01/04 10:48:13;;;;;;;0.80;0.80;;;11.80;93.40;;;;;;5117688;28;20102;-75
2023/01/04 10:50:56;;;;;;;1.65;0.90;;;11.80;93.40;;;;;;5087212;28;20043;-76
2023/01/04 10:53:44;;;;;;;1.02;0.88;;;11.80;93.40;;;;;;5134194;28;20058;-74
2023/01/04 10:56:31;;;;;;;1.95;0.88;;;11.80;93.40;;;;;;5117875;28;20039;-75
2023/01/04 10:59:14;;;;;;;0.93;0.82;;;11.90;93.40;;;;;;5118929;28;20080;-76
2023/01/04 11:02:14;;;;;;;1.23;0.77;;;11.80;93.40;;;;;;5081679;28;20498;-77
2023/01/04 11:04:50;;;;;;;1.33;1.00;;;11.90;93.40;;;;;;5100434;28;20032;-76
2023/01/04 11:07:25;;;;;;;1.10;1.00;;;11.90;93.40;;;;;;5118881;28;20081;-75
2023/01/04 11:10:09;;;;;;;1.38;0.90;;;11.90;93.40;;;;;;5084867;28;20122;-74
2023/01/04 11:12:35;;;;;;;1.42;0.60;;;11.90;93.50;;;;;;5101056;28;20046;-75
2023/01/04 11:15:00;;;;;;;1.10;1.00;;;12.00;93.50;;;;;;5141900;28;20095;-76
2023/01/04 11:17:27;;;;;;;1.00;0.90;;;11.90;93.40;;;;;;5106443;28;20042;-76
2023/01/04 11:19:53;;;;;;;1.52;1.00;;;11.90;93.40;;;;;;5109179;28;20066;-76
2023/01/04 11:22:28;;;;;;;1.10;0.90;;;12.00;93.50;;;;;;5104143;28;20051;-74
2023/01/04 11:25:01;;;;;;;1.15;0.80;;;12.00;93.50;;;;;;5088053;28;20187;-74
2023/01/04 11:27:30;;;;;;;1.02;0.80;;;11.90;93.50;;;;;;5101545;28;20501;-75
2023/01/04 11:30:04;;;;;;;2.25;1.10;;;12.00;93.50;;;;;;5101553;28;20126;-75
2023/01/04 11:32:52;;;;;;;0.90;0.80;;;12.00;93.50;;;;;;5101368;28;20093;-75
2023/01/04 11:35:38;;;;;;;1.25;1.00;;;12.00;93.50;;;;;;5117590;28;20046;-75
2023/01/04 11:38:10;;;;;;;1.92;0.85;;;12.00;93.50;;;;;;5136170;28;20122;-75
2023/01/04 11:40:36;;;;;;;0.93;0.80;;;12.00;93.50;;;;;;5135863;28;20050;-75
2023/01/04 11:43:19;;;;;;;1.02;0.80;;;12.00;93.50;;;;;;5136157;28;20114;-75
2023/01/04 11:46:03;;;;;;;1.00;0.90;;;12.00;93.50;;;;;;5136508;28;20483;-75
2023/01/04 11:48:34;;;;;;;1.10;0.90;;;12.00;93.60;;;;;;5136107;28;20509;-76
2023/01/04 11:51:00;;;;;;;1.20;0.97;;;12.00;93.60;;;;;;5100996;28;20494;-75
2023/01/04 11:53:33;;;;;;;1.38;1.00;;;12.00;93.60;;;;;;5117537;28;20122;-75
2023/01/04 11:56:16;;;;;;;1.30;0.80;;;12.10;93.60;;;;;;5135861;28;20046;-75
2023/01/04 11:58:44;;;;;;;0.60;0.60;;;12.00;93.60;;;;;;5135944;28;20039;-74
2023/01/04 12:01:25;;;;;;;0.98;0.70;;;12.10;93.60;;;;;;5135757;28;20071;-76
2023/01/04 12:03:51;;;;;;;1.15;0.80;;;12.00;93.60;;;;;;5136313;28;20038;-75
2023/01/04 12:06:38;;;;;;;1.23;0.80;;;12.10;93.60;;;;;;5136378;28;20374;-76
2023/01/04 12:09:14;;;;;;;1.20;0.88;;;12.10;93.60;;;;;;5135636;28;20031;-75
2023/01/04 12:11:44;;;;;;;0.68;0.68;;;12.10;93.50;;;;;;5136210;28;20400;-75
2023/01/04 12:14:19;;;;;;;0.70;0.70;;;12.20;93.60;;;;;;5117927;28;20099;-75
2023/01/04 12:17:00;;;;;;;0.90;0.90;;;12.20;93.60;;;;;;5120814;28;20045;-78
2023/01/04 12:19:26;;;;;;;0.70;0.70;;;12.20;93.60;;;;;;5126161;28;20043;-75
2023/01/04 12:21:56;;;;;;;1.13;1.00;;;12.20;93.60;;;;;;5119308;28;20109;-77
2023/01/04 12:24:25;;;;;;;0.95;0.88;;;12.30;93.60;;;;;;5118478;28;20482;-73
2023/01/04 12:26:52;;;;;;;1.10;1.00;;;12.30;93.60;;;;;;5120859;28;20386;-74
2023/01/04 12:29:33;;;;;;;0.90;0.80;;;12.30;93.50;;;;;;5099977;28;20047;-74
2023/01/04 12:32:18;;;;;;;;;;;12.40;93.50;;;;;;5117722;28;20047;-74
2023/01/04 12:34:46;;;;;;;0.90;0.85;;;12.40;93.50;;;;;;5101243;28;19937;-74
2023/01/04 12:37:48;;;;;;;1.00;0.93;;;12.40;93.50;;;;;;5099841;28;20043;-74
2023/01/04 12:40:51;;;;;;;1.17;1.08;;;12.50;93.50;;;;;;5103450;28;20039;-74
2023/01/04 12:43:24;;;;;;;1.92;1.20;;;12.50;93.70;;;;;;5136133;28;20397;-73
2023/01/04 12:49:36;;;;;;;2.05;1.30;;;12.60;93.30;;;;;;5137111;28;20039;-75
2023/01/04 12:52:39;;;;;;;2.13;1.35;;;12.60;93.30;;;;;;5145071;28;20455;-75
2023/01/04 12:55:44;;;;;;;2.22;1.30;;;12.70;93.30;;;;;;5106796;28;20042;-74
2023/01/04 12:58:39;;;;;;;1.73;1.23;;;12.70;93.30;;;;;;5089398;28;20049;-77
2023/01/04 13:01:09;;;;;;;1.20;1.10;;;12.70;93.30;;;;;;5121999;28;20043;-76
2023/01/04 13:03:45;;;;;;;2.22;1.30;;;12.70;93.20;;;;;;5107947;28;20035;-76
2023/01/04 13:06:12;;;;;;;1.52;1.27;;;12.80;93.30;;;;;;5118919;28;20039;-76
2023/01/04 13:08:40;;;;;;;2.45;1.23;;;12.80;93.20;;;;;;5106484;28;20116;-74
2023/01/04 13:11:29;;;;;;;2.65;1.30;;;12.90;93.20;;;;;;5124537;28;20465;-77
2023/01/04 13:14:06;;;;;;;2.10;1.33;;;12.80;93.20;;;;;;5142346;28;20051;-77
2023/01/04 13:16:43;;;;;;;3.22;1.38;;;12.80;93.20;;;;;;5117011;28;20035;-75
2023/01/04 13:19:21;;;;;;;2.17;1.48;;;12.90;93.20;;;;;;5128449;28;20042;-76
2023/01/04 13:21:48;;;;;;;2.03;1.08;;;12.90;93.20;;;;;;5129365;28;20122;-78
2023/01/04 13:24:22;;;;;;;3.25;1.40;;;12.90;93.10;;;;;;5119715;28;20035;-75
2023/01/04 13:26:50;;;;;;;2.75;1.20;;;12.90;93.10;;;;;;5118196;28;20039;-77
2023/01/04 13:29:27;;;;;;;1.13;0.93;;;12.90;93.10;;;;;;5119838;28;20042;-76
2023/01/04 13:31:57;;;;;;;2.75;1.00;;;12.90;93.10;;;;;;5103444;28;20083;-77
2023/01/04 13:34:45;;;;;;;2.35;1.20;;;12.80;93.10;;;;;;5120934;28;20071;-77
2023/01/04 13:37:20;;;;;;;3.33;1.38;;;12.90;93.20;;;;;;5122782;28;20113;-77
2023/01/04 13:39:51;;;;;;;2.85;1.38;;;12.90;93.40;;;;;;5101813;28;20035;-76
2023/01/04 13:42:27;;;;;;;1.58;1.23;;;12.90;93.10;;;;;;5116225;28;20070;-76
2023/01/04 13:45:27;;;;;;;2.70;1.50;;;12.90;93.10;;;;;;5135781;28;20555;-77
2023/01/04 13:47:57;;;;;;;3.75;1.70;;;13.00;93.00;;;;;;5123067;28;20065;-76
2023/01/04 13:50:29;;;;;;;3.67;1.70;;;13.00;93.00;;;;;;5082754;28;20383;-76
2023/01/04 13:52:55;;;;;;;2.75;1.50;;;13.10;92.90;;;;;;5120404;28;20043;-74
2023/01/04 13:55:26;;;;;;;2.28;1.67;;;13.00;92.80;;;;;;5082967;28;20470;-76
2023/01/04 13:58:01;;;;;;;2.67;1.85;;;13.10;92.90;;;;;;5084639;28;20084;-78
2023/01/04 14:00:31;;;;;;;2.70;1.60;;;13.20;92.90;;;;;;5103076;28;20051;-76